Observation data for Jayton on 02/24/2021      Previous  Date  Next       Current Mesonet Observations  Soil Data  Daily Summary Page  Observations in Plain Language
KJTS 240600Z 21013G18KT 16/06 A2983 RMK A01 T01600058  RH  052%=      5-min Rain = 0
KJTS 240605Z 21011KT 16/06 A2983 RMK A01 T01590059  RH  053%=      5-min Rain = 0
KJTS 240610Z 21012KT 16/06 A2983 RMK A01 T01570061  RH  054%=      5-min Rain = 0
KJTS 240615Z 22012G17KT 16/06 A2983 RMK A01 T01580062  RH  054%=      5-min Rain = 0
KJTS 240620Z 21011G16KT 16/06 A2983 RMK A01 T01560063  RH  055%=      5-min Rain = 0
KJTS 240625Z 22011G16KT 16/06 A2983 RMK A01 T01550064  RH  056%=      5-min Rain = 0
KJTS 240630Z 22011KT 16/07 A2983 RMK A01 T01550065  RH  057%=      5-min Rain = 0
KJTS 240635Z 21011G17KT 15/07 A2983 RMK A01 T01530068  RH  058%=      5-min Rain = 0
KJTS 240640Z 21010KT 15/07 A2983 RMK A01 T01510068  RH  059%=      5-min Rain = 0
KJTS 240645Z 21011KT 15/07 A2983 RMK A01 T01500070  RH  060%=      5-min Rain = 0
KJTS 240650Z 21010KT 15/07 A2983 RMK A01 T01480071  RH  061%=      5-min Rain = 0
KJTS 240655Z 21011KT 15/07 A2983 RMK A01 T01470072  RH  062%=      5-min Rain = 0
KJTS 240700Z 21011KT 15/07 A2983 RMK A01 T01470074  RH  063%=      5-min Rain = 0
KJTS 240705Z 21012KT 15/08 A2983 RMK A01 T01470075  RH  064%=      5-min Rain = 0
KJTS 240710Z 21011KT 15/08 A2984 RMK A01 T01460076  RH  065%=      5-min Rain = 0
KJTS 240715Z 21012KT 15/08 A2983 RMK A01 T01460078  RH  065%=      5-min Rain = 0
KJTS 240720Z 21011KT 15/08 A2984 RMK A01 T01460078  RH  066%=      5-min Rain = 0
KJTS 240725Z 21011G16KT 14/08 A2984 RMK A01 T01440079  RH  067%=      5-min Rain = 0
KJTS 240730Z 21013KT 15/08 A2983 RMK A01 T01450081  RH  067%=      5-min Rain = 0
KJTS 240735Z 21013KT 15/08 A2984 RMK A01 T01450082  RH  068%=      5-min Rain = 0
KJTS 240740Z 21013G18KT 15/08 A2984 RMK A01 T01450082  RH  068%=      5-min Rain = 0
KJTS 240745Z 22011KT 15/08 A2984 RMK A01 T01450083  RH  068%=      5-min Rain = 0
KJTS 240750Z 21011KT 14/08 A2984 RMK A01 T01430082  RH  069%=      5-min Rain = 0
KJTS 240755Z 21014KT 14/08 A2984 RMK A01 T01430082  RH  069%=      5-min Rain = 0
KJTS 240800Z 21013KT 14/08 A2984 RMK A01 T01430082  RH  068%=      5-min Rain = 0
KJTS 240805Z 21014KT 14/08 A2984 RMK A01 T01420082  RH  069%=      5-min Rain = 0
KJTS 240810Z 22013KT 14/08 A2985 RMK A01 T01430082  RH  069%=      5-min Rain = 0
KJTS 240815Z 22014G19KT 14/08 A2985 RMK A01 T01440082  RH  068%=      5-min Rain = 0
KJTS 240820Z 22012KT 14/08 A2985 RMK A01 T01430082  RH  068%=      5-min Rain = 0
KJTS 240825Z 22012G17KT 14/08 A2985 RMK A01 T01420082  RH  069%=      5-min Rain = 0
KJTS 240830Z 23011KT 14/08 A2985 RMK A01 T01430081  RH  068%=      5-min Rain = 0
KJTS 240835Z 23010KT 14/08 A2985 RMK A01 T01410080  RH  068%=      5-min Rain = 0
KJTS 240840Z 23009KT 14/08 A2986 RMK A01 T01390078  RH  069%=      5-min Rain = 0
KJTS 240845Z 23010KT 14/08 A2986 RMK A01 T01390077  RH  068%=      5-min Rain = 0
KJTS 240850Z 25008G14KT 14/07 A2987 RMK A01 T01370074  RH  067%=      5-min Rain = 0
KJTS 240855Z 25008KT 14/07 A2987 RMK A01 T01350072  RH  068%=      5-min Rain = 0
KJTS 240900Z 25009KT 14/07 A2987 RMK A01 T01350069  RH  066%=      5-min Rain = 0
KJTS 240905Z 26008KT 14/07 A2987 RMK A01 T01350066  RH  065%=      5-min Rain = 0
KJTS 240910Z 27007KT 13/06 A2988 RMK A01 T01330062  RH  063%=      5-min Rain = 0
KJTS 240915Z 30009KT 12/06 A2989 RMK A01 T01170056  RH  068%=      5-min Rain = 0
KJTS 240920Z 31009KT 11/06 A299 RMK A01 T01080055  RH  072%=      5-min Rain = 0
KJTS 240925Z 31010KT 11/06 A2991 RMK A01 T01090058  RH  072%=      5-min Rain = 0
KJTS 240930Z 30009KT 11/06 A299 RMK A01 T01120055  RH  069%=      5-min Rain = 0
KJTS 240935Z 30009KT 11/05 A299 RMK A01 T01140047  RH  065%=      5-min Rain = 0
KJTS 240940Z 31010KT 11/04 A2991 RMK A01 T01100038  RH  062%=      5-min Rain = 0
KJTS 240945Z 31010KT 11/03 A2991 RMK A01 T01080034  RH  061%=      5-min Rain = 0
KJTS 240950Z 31010KT 10/03 A2992 RMK A01 T01010030  RH  062%=      5-min Rain = 0
KJTS 240955Z 31012KT 10/02 A2992 RMK A01 T00990020  RH  059%=      5-min Rain = 0
KJTS 241000Z 32012KT 10/01 A2992 RMK A01 T01020007  RH  052%=      5-min Rain = 0
KJTS 241005Z 32011KT 10/M00 A2993 RMK A01 T01011003  RH  049%=      5-min Rain = 0
KJTS 241010Z 32010KT 10/M01 A2993 RMK A01 T00981008  RH  048%=      5-min Rain = 0
KJTS 241015Z 33010KT 10/M01 A2993 RMK A01 T00961012  RH  048%=      5-min Rain = 0
KJTS 241020Z 33010KT 10/M01 A2993 RMK A01 T00991014  RH  046%=      5-min Rain = 0
KJTS 241025Z 34009KT 10/M02 A2993 RMK A01 T01011016  RH  045%=      5-min Rain = 0
KJTS 241030Z 35011KT 11/M02 A2994 RMK A01 T01091017  RH  042%=      5-min Rain = 0
KJTS 241035Z 35010KT 11/M02 A2994 RMK A01 T01101018  RH  041%=      5-min Rain = 0
KJTS 241040Z 35009KT 11/M02 A2994 RMK A01 T01081018  RH  042%=      5-min Rain = 0
KJTS 241045Z 34010KT 11/M02 A2995 RMK A01 T01081019  RH  042%=      5-min Rain = 0
KJTS 241050Z 34011G16KT 11/M02 A2995 RMK A01 T01061019  RH  042%=      5-min Rain = 0
KJTS 241055Z 34010KT 11/M02 A2996 RMK A01 T01051019  RH  042%=      5-min Rain = 0
KJTS 241100Z 35010KT 10/M02 A2996 RMK A01 T01041020  RH  042%=      5-min Rain = 0
KJTS 241105Z 34011KT 11/M02 A2996 RMK A01 T01051021  RH  042%=      5-min Rain = 0
KJTS 241110Z 35010KT 10/M02 A2996 RMK A01 T01031022  RH  042%=      5-min Rain = 0
KJTS 241115Z 34009KT 10/M02 A2996 RMK A01 T01001022  RH  043%=      5-min Rain = 0
KJTS 241120Z 34011KT 10/M02 A2997 RMK A01 T01011023  RH  042%=      5-min Rain = 0
KJTS 241125Z 34011KT 10/M02 A2997 RMK A01 T01021023  RH  042%=      5-min Rain = 0
KJTS 241130Z 34011G16KT 10/M02 A2998 RMK A01 T01021024  RH  042%=      5-min Rain = 0
KJTS 241135Z 34013KT 10/M03 A2998 RMK A01 T01021025  RH  041%=      5-min Rain = 0
KJTS 241140Z 34012KT 10/M03 A2998 RMK A01 T01011025  RH  041%=      5-min Rain = 0
KJTS 241145Z 34012KT 10/M03 A2998 RMK A01 T01021026  RH  041%=      5-min Rain = 0
KJTS 241150Z 34012KT 10/M03 A2999 RMK A01 T01011026  RH  041%=      5-min Rain = 0
KJTS 241155Z 34012KT 10/M03 A2999 RMK A01 T01011027  RH  041%=      5-min Rain = 0
KJTS 241200Z 34012KT 10/M03 A30 RMK A01 T01001027  RH  041%=      5-min Rain = 0
KJTS 241205Z 34012KT 10/M03 A30 RMK A01 T00991027  RH  041%=      5-min Rain = 0
KJTS 241210Z 35013KT 10/M03 A30 RMK A01 T00991027  RH  041%=      5-min Rain = 0
KJTS 241215Z 35012KT 10/M03 A30 RMK A01 T00981027  RH  042%=      5-min Rain = 0
KJTS 241220Z 35011G16KT 10/M03 A3001 RMK A01 T00971027  RH  042%=      5-min Rain = 0
KJTS 241225Z 35011KT 10/M03 A3001 RMK A01 T00961027  RH  042%=      5-min Rain = 0
KJTS 241230Z 35013G18KT 10/M03 A3001 RMK A01 T00971026  RH  042%=      5-min Rain = 0
KJTS 241235Z 35014G21KT 10/M03 A3001 RMK A01 T00961026  RH  042%=      5-min Rain = 0
KJTS 241240Z 35013KT 10/M03 A3002 RMK A01 T00951026  RH  043%=      5-min Rain = 0
KJTS 241245Z 35012KT 09/M03 A3003 RMK A01 T00941026  RH  043%=      5-min Rain = 0
KJTS 241250Z 35012G19KT 09/M03 A3003 RMK A01 T00931026  RH  043%=      5-min Rain = 0
KJTS 241255Z 35013KT 09/M03 A3003 RMK A01 T00931025  RH  044%=      5-min Rain = 0
KJTS 241300Z 36013KT 09/M03 A3004 RMK A01 T00931026  RH  044%=      5-min Rain = 0
KJTS 241305Z 36013KT 09/M03 A3004 RMK A01 T00911025  RH  044%=      5-min Rain = 0
KJTS 241310Z 36012KT 09/M03 A3004 RMK A01 T00901025  RH  044%=      5-min Rain = 0
KJTS 241315Z 35012G17KT 09/M03 A3004 RMK A01 T00881025  RH  045%=      5-min Rain = 0
KJTS 241320Z 35011KT 09/M03 A3005 RMK A01 T00871025  RH  045%=      5-min Rain = 0
KJTS 241325Z 35010KT 09/M03 A3005 RMK A01 T00861025  RH  046%=      5-min Rain = 0
KJTS 241330Z 35010G15KT 09/M03 A3006 RMK A01 T00861025  RH  046%=      5-min Rain = 0
KJTS 241335Z 35012G17KT 09/M03 A3006 RMK A01 T00871025  RH  046%=      5-min Rain = 0
KJTS 241340Z 35013G18KT 09/M03 A3006 RMK A01 T00871025  RH  046%=      5-min Rain = 0
KJTS 241345Z 35012KT 09/M02 A3007 RMK A01 T00871024  RH  046%=      5-min Rain = 0
KJTS 241350Z 35013KT 09/M02 A3008 RMK A01 T00881024  RH  046%=      5-min Rain = 0
KJTS 241355Z 36012G18KT 09/M02 A3008 RMK A01 T00891024  RH  045%=      5-min Rain = 0
KJTS 241400Z 00013G18KT 09/M02 A3008 RMK A01 T00901023  RH  045%=      5-min Rain = 0
KJTS 241405Z 00013G19KT 09/M02 A3009 RMK A01 T00901022  RH  046%=      5-min Rain = 0
KJTS 241410Z 36014KT 09/M02 A3009 RMK A01 T00911022  RH  046%=      5-min Rain = 0
KJTS 241415Z 00014G21KT 09/M02 A301 RMK A01 T00911021  RH  046%=      5-min Rain = 0
KJTS 241420Z 00016G22KT 09/M02 A301 RMK A01 T00921019  RH  046%=      5-min Rain = 0
KJTS 241425Z 00016G21KT 09/M02 A301 RMK A01 T00921018  RH  046%=      5-min Rain = 0
KJTS 241430Z 00016G23KT 09/M02 A3011 RMK A01 T00931016  RH  047%=      5-min Rain = 0
KJTS 241435Z 00015G20KT 09/M01 A3011 RMK A01 T00941014  RH  047%=      5-min Rain = 0
KJTS 241440Z 00018G24KT 09/M01 A3011 RMK A01 T00941013  RH  047%=      5-min Rain = 0
KJTS 241445Z 01017G25KT 10/M01 A3012 RMK A01 T00951012  RH  048%=      5-min Rain = 0
KJTS 241450Z 01015G22KT 10/M01 A3012 RMK A01 T00961011  RH  048%=      5-min Rain = 0
KJTS 241455Z 01016G21KT 10/M01 A3012 RMK A01 T00981010  RH  047%=      5-min Rain = 0
KJTS 241500Z 01013G21KT 10/M01 A3013 RMK A01 T01001010  RH  047%=      5-min Rain = 0
KJTS 241505Z 02015G22KT 10/M01 A3013 RMK A01 T00991011  RH  047%=      5-min Rain = 0
KJTS 241510Z 02012G19KT 10/M01 A3014 RMK A01 T01011011  RH  046%=      5-min Rain = 0
KJTS 241515Z 02014G22KT 10/M01 A3014 RMK A01 T01031010  RH  046%=      5-min Rain = 0
KJTS 241520Z 02014G22KT 10/M01 A3014 RMK A01 T01041011  RH  045%=      5-min Rain = 0
KJTS 241525Z 01018G24KT 10/M01 A3014 RMK A01 T01041011  RH  045%=      5-min Rain = 0
KJTS 241530Z 01016G24KT 11/M01 A3015 RMK A01 T01061010  RH  045%=      5-min Rain = 0
KJTS 241535Z 02014G23KT 11/M01 A3015 RMK A01 T01061011  RH  045%=      5-min Rain = 0
KJTS 241540Z 01019G24KT 11/M01 A3015 RMK A01 T01071010  RH  045%=      5-min Rain = 0
KJTS 241545Z 01017G24KT 11/M01 A3015 RMK A01 T01081009  RH  044%=      5-min Rain = 0
KJTS 241550Z 01016G23KT 11/M01 A3016 RMK A01 T01081009  RH  044%=      5-min Rain = 0
KJTS 241555Z 01014G22KT 11/M01 A3016 RMK A01 T01121008  RH  044%=      5-min Rain = 0
KJTS 241600Z 01017G22KT 11/M01 A3016 RMK A01 T01111008  RH  044%=      5-min Rain = 0
KJTS 241605Z 01016G23KT 11/M01 A3016 RMK A01 T01121008  RH  044%=      5-min Rain = 0
KJTS 241610Z 36019G24KT 11/M01 A3016 RMK A01 T01131008  RH  043%=      5-min Rain = 0
KJTS 241615Z 01014G21KT 11/M01 A3016 RMK A01 T01141008  RH  043%=      5-min Rain = 0
KJTS 241620Z 00016G23KT 12/M01 A3016 RMK A01 T01171007  RH  043%=      5-min Rain = 0
KJTS 241625Z 00018G23KT 12/M01 A3016 RMK A01 T01161009  RH  042%=      5-min Rain = 0
KJTS 241630Z 01017G22KT 12/M01 A3017 RMK A01 T01171010  RH  042%=      5-min Rain = 0
KJTS 241635Z 01016G22KT 12/M01 A3017 RMK A01 T01161010  RH  042%=      5-min Rain = 0
KJTS 241640Z 01016G23KT 12/M01 A3017 RMK A01 T01181010  RH  041%=      5-min Rain = 0
KJTS 241645Z 01014G19KT 12/M01 A3017 RMK A01 T01201009  RH  041%=      5-min Rain = 0
KJTS 241650Z 01015G21KT 12/M01 A3017 RMK A01 T01231009  RH  040%=      5-min Rain = 0
KJTS 241655Z 02012G18KT 12/M01 A3017 RMK A01 T01221010  RH  040%=      5-min Rain = 0
KJTS 241700Z 03012G19KT 13/M01 A3017 RMK A01 T01251010  RH  040%=      5-min Rain = 0
KJTS 241705Z 02013G21KT 12/M01 A3018 RMK A01 T01221012  RH  040%=      5-min Rain = 0
KJTS 241710Z 01014G21KT 12/M01 A3018 RMK A01 T01231012  RH  040%=      5-min Rain = 0
KJTS 241715Z 01013G20KT 12/M01 A3018 RMK A01 T01231011  RH  040%=      5-min Rain = 0
KJTS 241720Z 01013G18KT 13/M01 A3018 RMK A01 T01261011  RH  039%=      5-min Rain = 0
KJTS 241725Z 02013G19KT 12/M01 A3018 RMK A01 T01231013  RH  039%=      5-min Rain = 0
KJTS 241730Z 02013G21KT 13/M01 A3018 RMK A01 T01251012  RH  039%=      5-min Rain = 0
KJTS 241735Z 01014G19KT 13/M01 A3017 RMK A01 T01261012  RH  039%=      5-min Rain = 0
KJTS 241740Z 02014G21KT 13/M01 A3017 RMK A01 T01281010  RH  039%=      5-min Rain = 0
KJTS 241745Z 01015G20KT 13/M01 A3017 RMK A01 T01271012  RH  039%=      5-min Rain = 0
KJTS 241750Z 01014G21KT 13/M01 A3017 RMK A01 T01311010  RH  038%=      5-min Rain = 0
KJTS 241755Z 01013G20KT 13/M01 A3017 RMK A01 T01301011  RH  038%=      5-min Rain = 0
KJTS 241800Z 01011G21KT 14/M01 A3016 RMK A01 T01381008  RH  037%=      5-min Rain = 0
KJTS 241805Z 02014G20KT 13/M01 A3016 RMK A01 T01341013  RH  037%=      5-min Rain = 0
KJTS 241810Z 03014G21KT 13/M01 A3016 RMK A01 T01321013  RH  037%=      5-min Rain = 0
KJTS 241815Z 01014G23KT 14/M01 A3016 RMK A01 T01351011  RH  037%=      5-min Rain = 0
KJTS 241820Z 02013G22KT 14/M01 A3016 RMK A01 T01381010  RH  036%=      5-min Rain = 0
KJTS 241825Z 01012G20KT 14/M01 A3015 RMK A01 T01401010  RH  036%=      5-min Rain = 0
KJTS 241830Z 01016G21KT 14/M01 A3015 RMK A01 T01371012  RH  036%=      5-min Rain = 0
KJTS 241835Z 02011G17KT 14/M01 A3015 RMK A01 T01401011  RH  036%=      5-min Rain = 0
KJTS 241840Z 01012G17KT 14/M01 A3015 RMK A01 T01441010  RH  035%=      5-min Rain = 0
KJTS 241845Z 02010G19KT 15/M01 A3014 RMK A01 T01481009  RH  034%=      5-min Rain = 0
KJTS 241850Z 03011G16KT 14/M01 A3014 RMK A01 T01431012  RH  035%=      5-min Rain = 0
KJTS 241855Z 03012G18KT 15/M01 A3014 RMK A01 T01451013  RH  034%=      5-min Rain = 0
KJTS 241900Z 02013G18KT 14/M01 A3014 RMK A01 T01431013  RH  034%=      5-min Rain = 0
KJTS 241905Z 01012G17KT 15/M01 A3013 RMK A01 T01491010  RH  034%=      5-min Rain = 0
KJTS 241910Z 02010G18KT 15/M01 A3013 RMK A01 T01531011  RH  033%=      5-min Rain = 0
KJTS 241915Z 02011G16KT 15/M01 A3013 RMK A01 T01491014  RH  033%=      5-min Rain = 0
KJTS 241920Z 02013G24KT 15/M01 A3013 RMK A01 T01491013  RH  033%=      5-min Rain = 0
KJTS 241925Z 02011G16KT 15/M01 A3013 RMK A01 T01491014  RH  033%=      5-min Rain = 0
KJTS 241930Z 02010G15KT 15/M01 A3012 RMK A01 T01541011  RH  033%=      5-min Rain = 0
KJTS 241935Z 03011G17KT 15/M02 A3012 RMK A01 T01511016  RH  032%=      5-min Rain = 0
KJTS 241940Z 05011KT 15/M02 A3012 RMK A01 T01501016  RH  032%=      5-min Rain = 0
KJTS 241945Z 03009G17KT 15/M02 A3012 RMK A01 T01541015  RH  031%=      5-min Rain = 0
KJTS 241950Z 04011G18KT 15/M02 A3011 RMK A01 T01541015  RH  032%=      5-min Rain = 0
KJTS 241955Z 05012G18KT 15/M02 A3011 RMK A01 T01541016  RH  031%=      5-min Rain = 0
KJTS 242000Z 05012G18KT 16/M01 A3011 RMK A01 T01561013  RH  032%=      5-min Rain = 0
KJTS 242005Z 05009G14KT 16/M01 A3011 RMK A01 T01551012  RH  032%=      5-min Rain = 0
KJTS 242010Z 04011G16KT 16/M01 A3011 RMK A01 T01571013  RH  031%=      5-min Rain = 0
KJTS 242015Z 03009KT 16/M01 A301 RMK A01 T01571014  RH  031%=      5-min Rain = 0
KJTS 242020Z 01011G17KT 16/M01 A301 RMK A01 T01631009  RH  031%=      5-min Rain = 0
KJTS 242025Z 05012G17KT 16/M01 A301 RMK A01 T01601014  RH  031%=      5-min Rain = 0
KJTS 242030Z 05011G16KT 16/M01 A301 RMK A01 T01611012  RH  031%=      5-min Rain = 0
KJTS 242035Z 03010G16KT 16/M02 A301 RMK A01 T01591015  RH  031%=      5-min Rain = 0
KJTS 242040Z 02010KT 16/M01 A301 RMK A01 T01621013  RH  030%=      5-min Rain = 0
KJTS 242045Z 03010G16KT 16/M02 A301 RMK A01 T01631016  RH  030%=      5-min Rain = 0
KJTS 242050Z 02011G18KT 16/M02 A3009 RMK A01 T01611016  RH  030%=      5-min Rain = 0
KJTS 242055Z 04011G17KT 16/M02 A3009 RMK A01 T01621017  RH  030%=      5-min Rain = 0
KJTS 242100Z 04012KT 16/M02 A3009 RMK A01 T01601018  RH  030%=      5-min Rain = 0
KJTS 242105Z 02009G14KT 16/M02 A3009 RMK A01 T01641016  RH  029%=      5-min Rain = 0
KJTS 242110Z 05012KT 17/M02 A3009 RMK A01 T01661016  RH  029%=      5-min Rain = 0
KJTS 242115Z 04013G18KT 17/M02 A3009 RMK A01 T01651017  RH  029%=      5-min Rain = 0
KJTS 242120Z 05009G15KT 16/M02 A3009 RMK A01 T01641017  RH  029%=      5-min Rain = 0
KJTS 242125Z 04010G17KT 17/M02 A3009 RMK A01 T01661017  RH  029%=      5-min Rain = 0
KJTS 242130Z 03010G15KT 17/M02 A3009 RMK A01 T01691017  RH  028%=      5-min Rain = 0
KJTS 242135Z 04010G15KT 17/M02 A3009 RMK A01 T01661019  RH  028%=      5-min Rain = 0
KJTS 242140Z 02013KT 17/M02 A3009 RMK A01 T01661019  RH  028%=      5-min Rain = 0
KJTS 242145Z 04009G15KT 17/M02 A3009 RMK A01 T01651019  RH  029%=      5-min Rain = 0
KJTS 242150Z 02009G14KT 17/M02 A3009 RMK A01 T01701017  RH  028%=      5-min Rain = 0
KJTS 242155Z 04008KT 17/M02 A3009 RMK A01 T01701017  RH  028%=      5-min Rain = 0
KJTS 242200Z 06012G20KT 17/M02 A3008 RMK A01 T01711018  RH  028%=      5-min Rain = 0
KJTS 242205Z 03009KT 17/M02 A3009 RMK A01 T01691019  RH  028%=      5-min Rain = 0
KJTS 242210Z 03009KT 17/M02 A3008 RMK A01 T01701020  RH  028%=      5-min Rain = 0
KJTS 242215Z 04010G18KT 17/M02 A3008 RMK A01 T01701018  RH  028%=      5-min Rain = 0
KJTS 242220Z 04010KT 17/M02 A3009 RMK A01 T01701020  RH  028%=      5-min Rain = 0
KJTS 242225Z 04009G14KT 17/M02 A3009 RMK A01 T01681021  RH  028%=      5-min Rain = 0
KJTS 242230Z 05012G17KT 17/M02 A3009 RMK A01 T01681021  RH  028%=      5-min Rain = 0
KJTS 242235Z 05008G14KT 17/M02 A3009 RMK A01 T01681020  RH  028%=      5-min Rain = 0
KJTS 242240Z 04009G14KT 17/M02 A3009 RMK A01 T01681021  RH  028%=      5-min Rain = 0
KJTS 242245Z 05010KT 17/M02 A3008 RMK A01 T01681021  RH  028%=      5-min Rain = 0
KJTS 242250Z 04009G14KT 17/M02 A3008 RMK A01 T01671022  RH  028%=      5-min Rain = 0
KJTS 242255Z 05010KT 17/M02 A3008 RMK A01 T01671022  RH  028%=      5-min Rain = 0
KJTS 242300Z 03009KT 17/M02 A3009 RMK A01 T01671021  RH  028%=      5-min Rain = 0
KJTS 242305Z 04008KT 17/M02 A3009 RMK A01 T01691020  RH  028%=      5-min Rain = 0
KJTS 242310Z 03009KT 17/M02 A3009 RMK A01 T01651023  RH  028%=      5-min Rain = 0
KJTS 242315Z 05010G15KT 17/M02 A3009 RMK A01 T01651023  RH  028%=      5-min Rain = 0
KJTS 242320Z 06010KT 16/M02 A3009 RMK A01 T01641024  RH  028%=      5-min Rain = 0
KJTS 242325Z 05008G13KT 16/M02 A3009 RMK A01 T01631024  RH  028%=      5-min Rain = 0
KJTS 242330Z 05010KT 16/M02 A3009 RMK A01 T01631024  RH  028%=      5-min Rain = 0
KJTS 242335Z 06008KT 16/M02 A3009 RMK A01 T01631023  RH  028%=      5-min Rain = 0
KJTS 242340Z 07011KT 16/M03 A3009 RMK A01 T01611025  RH  028%=      5-min Rain = 0
KJTS 242345Z 07008KT 16/M02 A3009 RMK A01 T01601024  RH  028%=      5-min Rain = 0
KJTS 242350Z 06007KT 16/M02 A3009 RMK A01 T01601024  RH  029%=      5-min Rain = 0
KJTS 242355Z 06009KT 16/M03 A3009 RMK A01 T01571025  RH  029%=      5-min Rain = 0
KJTS 250000Z 07009KT 15/M03 A3009 RMK A01 T01541025  RH  029%=      5-min Rain = 0
KJTS 250005Z 07007KT 15/M02 A3009 RMK A01 T01521024  RH  030%=      5-min Rain = 0
KJTS 250010Z 07008KT 15/M03 A301 RMK A01 T01501025  RH  030%=      5-min Rain = 0
KJTS 250015Z 07008KT 15/M02 A301 RMK A01 T01471024  RH  031%=      5-min Rain = 0
KJTS 250020Z 07008KT 14/M02 A301 RMK A01 T01441024  RH  031%=      5-min Rain = 0
KJTS 250025Z 07008KT 14/M03 A3011 RMK A01 T01411025  RH  032%=      5-min Rain = 0
KJTS 250030Z 08007KT 14/M03 A3011 RMK A01 T01361025  RH  033%=      5-min Rain = 0
KJTS 250035Z 07007KT 13/M03 A3012 RMK A01 T01321025  RH  034%=      5-min Rain = 0
KJTS 250040Z 07007KT 13/M03 A3012 RMK A01 T01261025  RH  035%=      5-min Rain = 0
KJTS 250045Z 07007KT 12/M03 A3012 RMK A01 T01211025  RH  036%=      5-min Rain = 0
KJTS 250050Z 07007KT 12/M03 A3012 RMK A01 T01181025  RH  037%=      5-min Rain = 0
KJTS 250055Z 07007KT 12/M03 A3012 RMK A01 T01151025  RH  038%=      5-min Rain = 0
KJTS 250100Z 06006KT 11/M03 A3012 RMK A01 T01111025  RH  039%=      5-min Rain = 0
KJTS 250105Z 07006KT 11/M03 A3013 RMK A01 T01071025  RH  040%=      5-min Rain = 0
KJTS 250110Z 06006KT 10/M03 A3013 RMK A01 T01041025  RH  041%=      5-min Rain = 0
KJTS 250115Z 06007KT 10/M03 A3013 RMK A01 T01031025  RH  041%=      5-min Rain = 0
KJTS 250120Z 06007KT 10/M03 A3013 RMK A01 T01031025  RH  041%=      5-min Rain = 0
KJTS 250125Z 06008KT 10/M03 A3013 RMK A01 T01011025  RH  041%=      5-min Rain = 0
KJTS 250130Z 06007KT 10/M03 A3014 RMK A01 T01001025  RH  042%=      5-min Rain = 0
KJTS 250135Z 07007KT 10/M03 A3014 RMK A01 T00971025  RH  043%=      5-min Rain = 0
KJTS 250140Z 06007KT 10/M03 A3014 RMK A01 T00951026  RH  043%=      5-min Rain = 0
KJTS 250145Z 06007KT 10/M03 A3014 RMK A01 T00961026  RH  043%=      5-min Rain = 0
KJTS 250150Z 06007KT 10/M03 A3015 RMK A01 T00961027  RH  042%=      5-min Rain = 0
KJTS 250155Z 06006KT 09/M03 A3015 RMK A01 T00891027  RH  044%=      5-min Rain = 0
KJTS 250200Z 06007KT 09/M03 A3015 RMK A01 T00861026  RH  045%=      5-min Rain = 0
KJTS 250205Z 06007KT 08/M03 A3015 RMK A01 T00841026  RH  046%=      5-min Rain = 0
KJTS 250210Z 06007KT 08/M03 A3015 RMK A01 T00831026  RH  046%=      5-min Rain = 0
KJTS 250215Z 06006KT 08/M03 A3016 RMK A01 T00821026  RH  047%=      5-min Rain = 0
KJTS 250220Z 06006KT 08/M03 A3016 RMK A01 T00801026  RH  047%=      5-min Rain = 0
KJTS 250225Z 06006KT 08/M03 A3016 RMK A01 T00811026  RH  047%=      5-min Rain = 0
KJTS 250230Z 06007KT 08/M03 A3017 RMK A01 T00811026  RH  047%=      5-min Rain = 0
KJTS 250235Z 05007KT 08/M03 A3017 RMK A01 T00821027  RH  047%=      5-min Rain = 0
KJTS 250240Z 05007KT 08/M03 A3017 RMK A01 T00841026  RH  046%=      5-min Rain = 0
KJTS 250245Z 05008KT 09/M03 A3018 RMK A01 T00861025  RH  046%=      5-min Rain = 0
KJTS 250250Z 05008KT 09/M03 A3018 RMK A01 T00861026  RH  045%=      5-min Rain = 0
KJTS 250255Z 05008KT 09/M03 A3018 RMK A01 T00851026  RH  046%=      5-min Rain = 0
KJTS 250300Z 05008KT 08/M03 A3018 RMK A01 T00841026  RH  046%=      5-min Rain = 0
KJTS 250305Z 04008KT 08/M03 A3018 RMK A01 T00831026  RH  046%=      5-min Rain = 0
KJTS 250310Z 04008KT 08/M03 A3019 RMK A01 T00821027  RH  046%=      5-min Rain = 0
KJTS 250315Z 04008KT 08/M03 A3019 RMK A01 T00821028  RH  046%=      5-min Rain = 0
KJTS 250320Z 04008KT 08/M03 A3019 RMK A01 T00811029  RH  046%=      5-min Rain = 0
KJTS 250325Z 04008KT 08/M03 A3019 RMK A01 T00791029  RH  047%=      5-min Rain = 0
KJTS 250330Z 05008KT 08/M03 A3019 RMK A01 T00781029  RH  047%=      5-min Rain = 0
KJTS 250335Z 05007KT 08/M03 A3019 RMK A01 T00771029  RH  047%=      5-min Rain = 0
KJTS 250340Z 05007KT 08/M03 A3019 RMK A01 T00751029  RH  048%=      5-min Rain = 0
KJTS 250345Z 06008KT 07/M03 A3019 RMK A01 T00741029  RH  048%=      5-min Rain = 0
KJTS 250350Z 06008KT 07/M03 A302 RMK A01 T00741029  RH  048%=      5-min Rain = 0
KJTS 250355Z 05008KT 07/M03 A302 RMK A01 T00731029  RH  048%=      5-min Rain = 0
KJTS 250400Z 05008KT 07/M03 A302 RMK A01 T00741030  RH  048%=      5-min Rain = 0
KJTS 250405Z 05008KT 08/M03 A302 RMK A01 T00751030  RH  047%=      5-min Rain = 0
KJTS 250410Z 05008KT 08/M03 A3021 RMK A01 T00761031  RH  047%=      5-min Rain = 0
KJTS 250415Z 06009G14KT 08/M03 A3021 RMK A01 T00771031  RH  047%=      5-min Rain = 0
KJTS 250420Z 06010KT 08/M03 A3021 RMK A01 T00791032  RH  046%=      5-min Rain = 0
KJTS 250425Z 05011KT 08/M03 A3021 RMK A01 T00801032  RH  045%=      5-min Rain = 0
KJTS 250430Z 05011KT 08/M03 A3021 RMK A01 T00811033  RH  045%=      5-min Rain = 0
KJTS 250435Z 06012KT 08/M03 A3021 RMK A01 T00821034  RH  044%=      5-min Rain = 0
KJTS 250440Z 06012G17KT 08/M03 A302 RMK A01 T00801034  RH  044%=      5-min Rain = 0
KJTS 250445Z 06012KT 08/M04 A302 RMK A01 T00801035  RH  044%=      5-min Rain = 0
KJTS 250450Z 06011KT 08/M04 A302 RMK A01 T00781035  RH  045%=      5-min Rain = 0
KJTS 250455Z 05010G15KT 08/M04 A302 RMK A01 T00761035  RH  046%=      5-min Rain = 0
KJTS 250500Z 05010KT 07/M04 A3021 RMK A01 T00741035  RH  046%=      5-min Rain = 0
KJTS 250505Z 05009KT 07/M04 A3021 RMK A01 T00731035  RH  046%=      5-min Rain = 0
KJTS 250510Z 05009KT 07/M04 A3022 RMK A01 T00711036  RH  047%=      5-min Rain = 0
KJTS 250515Z 06009KT 07/M04 A3022 RMK A01 T00701036  RH  047%=      5-min Rain = 0
KJTS 250520Z 05009KT 07/M04 A3021 RMK A01 T00691036  RH  047%=      5-min Rain = 0
KJTS 250525Z 05009KT 07/M04 A3021 RMK A01 T00681036  RH  048%=      5-min Rain = 0
KJTS 250530Z 05009KT 07/M04 A3021 RMK A01 T00651036  RH  049%=      5-min Rain = 0
KJTS 250535Z 05009KT 06/M04 A302 RMK A01 T00641036  RH  049%=      5-min Rain = 0
KJTS 250540Z 05009KT 06/M04 A302 RMK A01 T00631036  RH  049%=      5-min Rain = 0
KJTS 250545Z 04010KT 06/M04 A302 RMK A01 T00621036  RH  050%=      5-min Rain = 0
KJTS 250550Z 04009KT 06/M04 A302 RMK A01 T00601036  RH  050%=      5-min Rain = 0
KJTS 250555Z 05008KT 06/M04 A302 RMK A01 T00591036  RH  051%=      5-min Rain = 0

Page generated in 0.009 seconds.